createdAt,value
2023-08-05T00:00:02.198Z,99882.66
2023-08-05T00:02:29.856Z,99869.56
2023-08-05T00:04:57.868Z,99871.41
2023-08-05T00:07:25.484Z,99870.53
2023-08-05T00:09:53.260Z,99869.78
2023-08-05T00:12:20.891Z,99875.06
2023-08-05T00:14:50.062Z,99872.41
2023-08-05T00:17:17.819Z,99868.03
2023-08-05T00:19:45.749Z,99874.97
2023-08-05T00:22:13.398Z,99876.63
2023-08-05T00:24:41.884Z,99869.72
2023-08-05T00:27:09.565Z,99867.91
2023-08-05T00:29:37.435Z,99878.47
2023-08-05T00:32:07.244Z,99882.84
2023-08-05T00:34:35.910Z,99881.88
2023-08-05T00:37:03.869Z,99874.72
2023-08-05T00:39:31.728Z,99879.19
2023-08-05T00:41:59.366Z,99872.06
2023-08-05T00:44:27.170Z,99866.88
2023-08-05T00:46:54.857Z,99851.94
2023-08-05T00:49:24.081Z,99859.97
2023-08-05T00:51:51.699Z,99856.59
2023-08-05T00:54:19.529Z,99860.25
2023-08-05T00:56:47.344Z,99841.91
2023-08-05T00:59:15.152Z,99854.34
2023-08-05T01:01:42.907Z,99841.44
2023-08-05T01:04:10.619Z,99841.59
2023-08-05T01:06:39.709Z,99840.06
2023-08-05T01:09:07.413Z,99847.25
2023-08-05T01:11:35.050Z,99841.28
2023-08-05T01:14:03.837Z,99833.53
2023-08-05T01:16:31.460Z,99848.50
2023-08-05T01:18:59.257Z,99852.16
2023-08-05T01:21:33.089Z,99813.41
2023-08-05T01:24:10.493Z,99857.59
2023-08-05T01:26:39.466Z,99859.41
2023-08-05T01:29:07.313Z,99860.31
2023-08-05T01:31:34.986Z,99813.78
2023-08-05T01:34:02.847Z,99848.28
2023-08-05T01:36:31.567Z,99852.69
2023-08-05T01:38:59.232Z,99849.09
2023-08-05T01:41:27.071Z,99852.66
2023-08-05T01:43:56.097Z,99846.50
2023-08-05T01:46:24.021Z,99849.25
2023-08-05T01:48:51.795Z,99851.09
2023-08-05T01:51:19.622Z,99849.38
2023-08-05T01:53:47.238Z,99850.22
2023-08-05T01:56:14.913Z,99859.03
2023-08-05T01:58:42.740Z,99851.94
2023-08-05T02:01:11.816Z,99858.94
2023-08-05T02:03:39.828Z,99801.78
2023-08-05T02:08:41.475Z,99860.72
2023-08-05T02:11:09.129Z,99856.38
2023-08-05T02:13:36.874Z,99851.84
2023-08-05T02:16:05.518Z,99851.84
2023-08-05T02:18:34.682Z,99846.56
2023-08-05T02:21:02.362Z,99845.69
2023-08-05T02:23:30.338Z,99840.44
2023-08-05T02:25:57.973Z,99837.88
2023-08-05T02:28:25.807Z,99825.66
2023-08-05T02:30:53.533Z,99824.75
2023-08-05T02:33:21.376Z,99836.31
2023-08-05T02:35:50.422Z,99834.63
2023-08-05T02:38:18.212Z,99824.13
2023-08-05T02:40:45.876Z,99834.59
2023-08-05T02:43:13.748Z,99830.09
2023-08-05T02:45:42.294Z,99791.00
2023-08-05T02:48:10.215Z,99825.47
2023-08-05T02:50:37.890Z,99821.84
2023-08-05T02:53:07.139Z,99820.03
2023-08-05T02:55:34.789Z,99828.91
2023-08-05T02:58:02.598Z,99835.09
2023-08-05T03:00:30.283Z,99836.78
2023-08-05T03:02:58.135Z,99825.44
2023-08-05T03:05:25.948Z,99825.28
2023-08-05T03:07:54.900Z,99819.13
2023-08-05T03:10:24.072Z,99822.69
2023-08-05T03:12:51.718Z,99817.41
2023-08-05T03:15:19.456Z,99813.13
2023-08-05T03:17:47.215Z,99821.03
2023-08-05T03:20:24.902Z,99819.34
2023-08-05T03:22:53.742Z,99826.47
2023-08-05T03:25:22.026Z,99820.19
2023-08-05T03:27:51.334Z,99822.81
2023-08-05T03:30:19.219Z,99821.84
2023-08-05T03:32:48.547Z,99820.00
2023-08-05T03:35:16.419Z,99809.38
2023-08-05T03:37:45.208Z,99816.28
2023-08-05T03:40:13.419Z,99813.50
2023-08-05T03:42:41.583Z,99800.22
2023-08-05T03:45:12.140Z,99798.47
2023-08-05T03:47:40.057Z,99799.38
2023-08-05T03:50:10.246Z,99791.53
2023-08-05T03:52:39.462Z,99779.41
2023-08-05T03:55:09.928Z,99773.59
2023-08-05T03:57:37.776Z,99789.84
2023-08-05T04:00:06.357Z,99798.63
2023-08-05T04:02:35.632Z,99804.75
2023-08-05T04:05:04.784Z,99806.50
2023-08-05T04:07:32.693Z,99801.31
2023-08-05T04:10:00.628Z,99796.22
2023-08-05T04:12:28.402Z,99793.06
2023-08-05T04:14:59.823Z,99782.59
2023-08-05T04:17:27.595Z,99782.72
2023-08-05T04:19:57.019Z,99785.38
2023-08-05T04:22:26.488Z,99784.44
2023-08-05T04:24:54.660Z,99785.97
2023-08-05T04:27:23.007Z,99792.81
2023-08-05T04:29:51.145Z,99790.03
2023-08-05T04:32:18.939Z,99794.41
2023-08-05T04:34:46.779Z,99791.69
2023-08-05T04:37:19.073Z,99765.56
2023-08-05T04:39:47.046Z,99771.41
2023-08-05T04:42:14.691Z,99767.97
2023-08-05T04:44:43.086Z,99757.59
2023-08-05T04:47:10.710Z,99770.88
2023-08-05T04:49:39.963Z,99767.41
2023-08-05T04:52:08.294Z,99767.50
2023-08-05T04:54:40.216Z,99765.81
2023-08-05T04:57:08.290Z,99747.59
2023-08-05T04:59:36.134Z,99757.59
2023-08-05T05:02:03.850Z,99751.50
2023-08-05T05:04:31.670Z,99758.22
2023-08-05T05:06:59.948Z,99757.06
2023-08-05T05:09:27.599Z,99746.22
2023-08-05T05:11:56.751Z,99732.41
2023-08-05T05:14:24.623Z,99754.72
2023-08-05T05:16:53.222Z,99747.53
2023-08-05T05:19:21.064Z,99742.88
2023-08-05T05:21:48.908Z,99742.63
2023-08-05T05:24:17.016Z,99734.66
2023-08-05T05:26:46.769Z,99739.69
2023-08-05T05:29:15.786Z,99730.03
2023-08-05T05:31:43.455Z,99754.34
2023-08-05T05:34:11.363Z,99760.28
2023-08-05T05:36:39.412Z,99759.91
2023-08-05T05:39:07.250Z,99762.94
2023-08-05T05:41:34.913Z,99771.28
2023-08-05T05:44:05.135Z,99754.88
2023-08-05T05:46:34.346Z,99755.06
2023-08-05T05:49:05.024Z,99761.38
2023-08-05T05:51:32.668Z,99751.84
2023-08-05T05:54:00.412Z,99748.69
2023-08-05T05:56:28.211Z,99745.78
2023-08-05T05:58:56.064Z,99745.78
2023-08-05T06:01:24.515Z,99754.66
2023-08-05T06:03:53.703Z,99755.72
2023-08-05T06:06:21.470Z,99754.53
2023-08-05T06:08:49.260Z,99747.88
2023-08-05T06:11:17.546Z,99755.16
2023-08-05T06:13:45.206Z,99759.19
2023-08-05T06:16:12.949Z,99764.16
2023-08-05T06:18:40.703Z,99754.97
2023-08-05T06:21:09.893Z,99756.06
2023-08-05T06:23:37.720Z,99757.38
2023-08-05T06:26:05.506Z,99755.34
2023-08-05T06:28:33.155Z,99750.03
2023-08-05T06:31:00.871Z,99760.91
2023-08-05T06:33:28.639Z,99770.09
2023-08-05T06:35:56.286Z,99760.66
2023-08-05T06:38:26.086Z,99758.28
2023-08-05T06:40:53.765Z,99758.31
2023-08-05T06:43:21.550Z,99765.28
2023-08-05T06:45:49.201Z,99762.81
2023-08-05T06:48:17.070Z,99767.72
2023-08-05T06:50:44.715Z,99758.03
2023-08-05T06:53:12.630Z,99758.50
2023-08-05T06:55:41.660Z,99742.53
2023-08-05T06:58:09.420Z,99766.97
2023-08-05T07:00:37.287Z,99753.19
2023-08-05T07:03:05.400Z,99756.00
2023-08-05T07:05:33.200Z,99749.88
2023-08-05T07:08:00.884Z,99748.91
2023-08-05T07:10:28.627Z,99745.53
2023-08-05T07:12:57.607Z,99730.34
2023-08-05T07:15:25.400Z,99741.66
2023-08-05T07:17:53.266Z,99731.38
2023-08-05T07:20:21.079Z,99731.81
2023-08-05T07:22:48.715Z,99738.59
2023-08-05T07:25:16.704Z,99733.00
2023-08-05T07:27:44.324Z,99732.34
2023-08-05T07:30:13.986Z,99742.63
2023-08-05T07:32:41.821Z,99742.22
2023-08-05T07:35:11.288Z,99734.00
2023-08-05T07:37:39.095Z,99708.34
2023-08-05T07:40:13.452Z,99725.88
2023-08-05T07:42:41.329Z,99722.94
2023-08-05T07:45:15.274Z,99709.03
2023-08-05T07:47:45.103Z,99708.22
2023-08-05T07:50:15.470Z,99699.78
2023-08-05T07:52:43.860Z,99700.03
2023-08-05T07:55:11.701Z,99682.28
2023-08-05T07:57:41.423Z,99676.75
2023-08-05T08:00:11.171Z,99685.69
2023-08-05T08:02:39.397Z,99681.13
2023-08-05T08:05:09.483Z,99678.03
2023-08-05T08:07:37.573Z,99683.59
2023-08-05T08:10:06.302Z,99697.28
2023-08-05T08:12:34.174Z,99567.88
2023-08-05T08:15:03.472Z,99460.13
2023-08-05T08:17:37.272Z,99514.66
2023-08-05T08:20:19.113Z,99387.88
2023-08-05T08:22:47.239Z,99364.41
2023-08-05T08:25:18.035Z,99434.16
2023-08-05T08:27:47.212Z,99540.75
2023-08-05T08:30:15.156Z,99483.94
2023-08-05T08:32:46.842Z,99416.03
2023-08-05T08:35:22.446Z,99592.16
2023-08-05T08:37:50.326Z,99255.44
2023-08-05T08:40:18.655Z,99695.63
2023-08-05T08:42:47.316Z,99643.19
2023-08-05T08:45:17.546Z,99642.19
2023-08-05T08:47:45.397Z,99636.06
2023-08-05T08:50:13.290Z,99639.34
2023-08-05T08:52:42.938Z,99631.88
2023-08-05T08:55:11.226Z,99622.13
2023-08-05T08:57:38.936Z,99631.91
2023-08-05T09:00:08.082Z,99614.44
2023-08-05T09:02:36.275Z,99605.28
2023-08-05T09:05:04.456Z,99615.94
2023-08-05T09:07:33.413Z,99578.34
2023-08-05T09:10:06.453Z,99598.63
2023-08-05T09:12:35.094Z,99605.50
2023-08-05T09:15:03.024Z,99598.97
2023-08-05T09:17:38.601Z,99596.34
2023-08-05T09:20:13.320Z,99557.84
2023-08-05T09:22:40.942Z,99591.72
2023-08-05T09:25:10.641Z,99594.16
2023-08-05T09:27:47.372Z,99559.38
2023-08-05T09:30:18.480Z,99580.09
2023-08-05T09:32:46.963Z,99575.94
2023-08-05T09:35:14.696Z,99567.56
2023-08-05T09:37:42.366Z,99579.22
2023-08-05T09:40:22.822Z,99567.88
2023-08-05T09:42:51.503Z,99563.25
2023-08-05T09:45:19.502Z,99580.84
2023-08-05T09:47:48.708Z,99568.63
2023-08-05T09:50:18.176Z,99552.41
2023-08-05T09:52:47.134Z,99556.97
2023-08-05T09:55:15.866Z,99549.38
2023-08-05T09:57:45.083Z,99589.81
2023-08-05T10:00:15.016Z,99544.78
2023-08-05T10:02:43.500Z,99539.88
2023-08-05T10:05:11.536Z,99541.75
2023-08-05T10:07:41.005Z,99533.22
2023-08-05T10:10:10.091Z,99542.19
2023-08-05T10:12:40.426Z,99524.13
2023-08-05T10:15:10.213Z,99506.25
2023-08-05T10:17:39.577Z,99476.38
2023-08-05T10:20:09.804Z,99531.03
2023-08-05T10:22:38.052Z,99511.28
2023-08-05T10:25:06.629Z,99504.63
2023-08-05T10:27:38.509Z,99506.53
2023-08-05T10:30:12.216Z,99501.63
2023-08-05T10:33:01.059Z,99470.66
2023-08-05T10:35:29.948Z,99486.00
2023-08-05T10:38:17.042Z,99488.69
2023-08-05T10:40:48.423Z,99461.88
2023-08-05T10:43:40.177Z,99469.09
2023-08-05T10:46:13.981Z,99471.31
2023-08-05T10:48:42.955Z,99471.72
2023-08-05T10:51:11.045Z,99468.09
2023-08-05T10:53:39.640Z,99465.56
2023-08-05T10:56:10.408Z,99470.97
2023-08-05T10:58:38.239Z,99443.06
2023-08-05T11:01:06.944Z,99461.25
2023-08-05T11:03:43.465Z,99460.03
2023-08-05T11:06:11.952Z,99459.47
2023-08-05T11:08:40.338Z,99444.75
2023-08-05T11:11:09.327Z,99407.59
2023-08-05T11:13:37.811Z,99417.97
2023-08-05T11:16:09.575Z,99446.69
2023-08-05T11:18:37.410Z,99424.56
2023-08-05T11:21:07.332Z,99420.28
2023-08-05T11:23:35.108Z,99438.13
2023-08-05T11:26:03.124Z,99425.75
2023-08-05T11:28:33.615Z,99433.47
2023-08-05T11:31:02.942Z,99430.94
2023-08-05T11:33:30.671Z,99420.47
2023-08-05T11:35:58.766Z,99419.31
2023-08-05T11:38:27.877Z,99412.16
2023-08-05T11:40:56.518Z,99396.31
2023-08-05T11:43:24.724Z,99348.22
2023-08-05T11:45:52.966Z,99395.91
2023-08-05T11:48:21.514Z,99349.81
2023-08-05T11:50:49.230Z,99355.03
2023-08-05T11:53:17.885Z,99387.50
2023-08-05T11:55:47.555Z,99279.34
2023-08-05T11:58:15.407Z,99379.81
2023-08-05T12:00:47.175Z,99378.16
2023-08-05T12:03:15.746Z,99369.06
2023-08-05T12:05:44.738Z,99365.69
2023-08-05T12:08:12.504Z,99369.97
2023-08-05T12:10:40.248Z,99369.44
2023-08-05T12:13:09.867Z,99371.47
2023-08-05T12:15:38.433Z,99370.38
2023-08-05T12:18:07.206Z,99369.47
2023-08-05T12:20:35.786Z,99379.88
2023-08-05T12:23:04.226Z,99359.44
2023-08-05T12:25:32.663Z,99337.47
2023-08-05T12:28:02.667Z,99346.50
2023-08-05T12:30:35.478Z,99350.41
2023-08-05T12:33:05.939Z,99344.34
2023-08-05T12:35:35.269Z,99339.22
2023-08-05T12:38:03.086Z,99228.06
2023-08-05T12:40:30.772Z,99320.09
2023-08-05T12:42:58.432Z,99319.47
2023-08-05T12:45:26.072Z,99317.16
2023-08-05T12:47:55.254Z,99296.91
2023-08-05T12:50:22.901Z,99285.47
2023-08-05T12:52:50.591Z,99296.81
2023-08-05T12:55:18.334Z,99308.13
2023-08-05T12:57:46.060Z,99298.03
2023-08-05T13:00:14.883Z,99288.66
2023-08-05T13:02:42.687Z,99276.59
2023-08-05T13:05:11.839Z,99273.16
2023-08-05T13:07:39.636Z,99262.81
2023-08-05T13:10:09.186Z,99249.13
2023-08-05T13:12:37.976Z,99252.78
2023-08-05T13:15:06.294Z,99237.69
2023-08-05T13:17:34.172Z,99243.31
2023-08-05T13:20:01.955Z,99238.69
2023-08-05T13:22:31.010Z,99240.38
2023-08-05T13:25:00.541Z,99251.94
2023-08-05T13:27:29.323Z,99269.41
2023-08-05T13:29:57.252Z,99269.16
2023-08-05T13:32:25.054Z,99270.91
2023-08-05T13:34:53.613Z,99261.59
2023-08-05T13:37:21.466Z,99264.22
2023-08-05T13:39:52.094Z,99258.44
2023-08-05T13:42:20.830Z,99253.78
2023-08-05T13:44:48.572Z,99279.66
2023-08-05T13:47:16.348Z,99260.41
2023-08-05T13:49:44.047Z,99285.59
2023-08-05T13:52:11.938Z,99285.63
2023-08-05T13:54:39.617Z,99279.47
2023-08-05T13:57:08.894Z,99254.13
2023-08-05T13:59:36.544Z,99279.75
2023-08-05T14:02:04.406Z,99300.50
2023-08-05T14:04:32.327Z,99309.75
2023-08-05T14:07:00.017Z,99305.66
2023-08-05T14:09:27.694Z,99283.69
2023-08-05T14:11:55.473Z,99238.22
2023-08-05T14:14:25.591Z,99290.00
2023-08-05T14:16:53.402Z,99272.22
2023-08-05T14:19:21.418Z,99199.09
2023-08-05T14:21:50.404Z,99153.84
2023-08-05T14:24:18.526Z,99159.66
2023-08-05T14:26:47.705Z,99264.91
2023-08-05T14:29:21.431Z,99318.50
2023-08-05T14:31:51.354Z,99071.34
2023-08-05T14:34:19.491Z,99178.09
2023-08-05T14:36:48.520Z,99203.88
2023-08-05T14:39:17.031Z,99238.69
2023-08-05T14:41:45.649Z,99138.28
2023-08-05T14:44:13.651Z,99271.03
2023-08-05T14:46:42.776Z,98990.72
2023-08-05T14:49:12.178Z,99035.25
2023-08-05T14:51:40.335Z,98916.53
2023-08-05T14:54:10.189Z,98943.25
2023-08-05T14:56:38.012Z,98941.47
2023-08-05T14:59:06.146Z,99211.81
2023-08-05T15:01:34.078Z,98959.13
2023-08-05T15:04:02.205Z,99008.00
2023-08-05T15:06:31.581Z,98838.59
2023-08-05T15:08:59.624Z,99113.28
2023-08-05T15:11:27.664Z,99000.25
2023-08-05T15:13:55.521Z,98917.41
2023-08-05T15:16:23.377Z,98989.19
2023-08-05T15:18:51.283Z,99176.84
2023-08-05T15:21:19.060Z,99133.78
2023-08-05T15:23:48.578Z,99196.34
2023-08-05T15:26:22.647Z,98908.66
2023-08-05T15:28:50.520Z,98958.59
2023-08-05T15:31:19.731Z,99169.75
2023-08-05T15:33:48.068Z,98913.72
2023-08-05T15:36:16.199Z,99040.69
2023-08-05T15:38:44.098Z,99165.56
2023-08-05T15:41:13.449Z,98949.75
2023-08-05T15:43:41.440Z,98843.97
2023-08-05T15:46:09.474Z,99107.94
2023-08-05T15:48:37.434Z,99066.53
2023-08-05T15:51:05.506Z,99194.44
2023-08-05T15:53:33.730Z,99214.75
2023-08-05T15:56:01.834Z,98942.72
2023-08-05T15:58:31.678Z,99266.97
2023-08-05T16:01:02.703Z,98870.59
2023-08-05T16:03:30.787Z,98846.81
2023-08-05T16:06:03.526Z,98963.03
2023-08-05T16:08:33.216Z,98842.53
2023-08-05T16:11:03.244Z,99018.41
2023-08-05T16:13:33.869Z,98928.94
2023-08-05T16:16:13.083Z,98861.06
2023-08-05T16:18:42.703Z,98746.53
2023-08-05T16:21:18.317Z,98914.41
2023-08-05T16:23:58.693Z,98825.44
2023-08-05T16:26:34.807Z,99115.72
2023-08-05T16:29:06.924Z,99167.72
2023-08-05T16:31:35.138Z,99236.94
2023-08-05T16:34:04.391Z,99039.38
2023-08-05T16:36:32.602Z,99188.09
2023-08-05T16:39:08.969Z,98759.38
2023-08-05T16:41:44.518Z,99094.03
2023-08-05T16:44:28.579Z,99047.16
2023-08-05T16:47:15.817Z,99050.00
2023-08-05T16:49:49.109Z,99033.03
2023-08-05T16:52:18.174Z,98848.91
2023-08-05T16:54:47.226Z,98849.09
2023-08-05T16:57:16.437Z,99133.91
2023-08-05T16:59:45.806Z,99129.81
2023-08-05T17:02:13.880Z,99078.50
2023-08-05T17:04:41.831Z,99127.25
2023-08-05T17:07:09.768Z,99133.59
2023-08-05T17:09:37.976Z,99126.03
2023-08-05T17:12:06.216Z,99142.34
2023-08-05T17:14:34.167Z,99137.88
2023-08-05T17:17:05.530Z,99027.72
2023-08-05T17:19:34.962Z,99128.94
2023-08-05T17:22:03.037Z,99124.50
2023-08-05T17:24:31.313Z,99129.81
2023-08-05T17:27:00.185Z,99063.97
2023-08-05T17:29:28.193Z,99115.09
2023-08-05T17:31:57.454Z,99111.84
2023-08-05T17:34:26.684Z,99110.91
2023-08-05T17:36:54.908Z,99118.13
2023-08-05T17:39:22.935Z,99115.94
2023-08-05T17:41:51.226Z,99117.81
2023-08-05T17:44:19.220Z,99102.94
2023-08-05T17:46:47.757Z,99104.16
2023-08-05T17:49:15.623Z,99089.31
2023-08-05T17:51:47.289Z,99097.09
2023-08-05T17:54:15.708Z,99095.50
2023-08-05T17:56:45.801Z,99092.34
2023-08-05T17:59:13.951Z,99091.31
2023-08-05T18:01:42.432Z,99094.44
2023-08-05T18:04:11.278Z,99099.44
2023-08-05T18:06:39.551Z,99025.56
2023-08-05T18:09:09.119Z,99094.19
2023-08-05T18:11:37.337Z,99055.56
2023-08-05T18:14:05.325Z,99093.84
2023-08-05T18:16:33.239Z,99094.66
2023-08-05T18:19:01.263Z,99086.88
2023-08-05T18:21:28.962Z,99074.63
2023-08-05T18:23:57.916Z,99060.16
2023-08-05T18:26:26.991Z,99075.91
2023-08-05T18:28:54.955Z,99059.59
2023-08-05T18:31:22.855Z,99072.00
2023-08-05T18:33:52.326Z,99074.66
2023-08-05T18:36:20.392Z,99072.19
2023-08-05T18:38:48.230Z,99056.34
2023-08-05T18:41:16.182Z,99048.28
2023-08-05T18:43:45.854Z,99044.31
2023-08-05T18:46:13.912Z,99029.41
2023-08-05T18:48:41.950Z,99029.97
2023-08-05T18:51:09.876Z,99022.16
2023-08-05T18:53:40.929Z,99018.16
2023-08-05T18:56:10.224Z,99013.03
2023-08-05T18:58:39.220Z,99011.50
2023-08-05T19:01:10.039Z,98998.56
2023-08-05T19:03:38.506Z,98996.59
2023-08-05T19:06:06.545Z,98998.56
2023-08-05T19:08:34.356Z,98984.81
2023-08-05T19:11:02.289Z,99000.00
2023-08-05T19:13:30.154Z,98991.38
2023-08-05T19:16:01.615Z,98993.94
2023-08-05T19:18:35.922Z,98992.56
2023-08-05T19:21:05.433Z,98994.53
2023-08-05T19:23:33.299Z,98991.31
2023-08-05T19:26:01.919Z,98991.84
2023-08-05T19:28:31.650Z,98972.66
2023-08-05T19:30:59.560Z,98978.91
2023-08-05T19:33:27.509Z,98990.53
2023-08-05T19:35:56.869Z,98983.00
2023-08-05T19:38:24.883Z,98977.88
2023-08-05T19:40:58.493Z,98981.50
2023-08-05T19:43:26.498Z,98976.94
2023-08-05T19:45:54.362Z,98977.13
2023-08-05T19:48:22.328Z,98983.00
2023-08-05T19:50:56.635Z,98979.59
2023-08-05T19:53:36.605Z,98976.56
2023-08-05T19:56:04.844Z,98978.91
2023-08-05T19:58:32.772Z,98972.72
2023-08-05T20:01:01.204Z,98971.13
2023-08-05T20:03:29.904Z,98964.03
2023-08-05T20:05:57.706Z,98970.88
2023-08-05T20:08:25.409Z,98971.72
2023-08-05T20:10:54.707Z,98969.81
2023-08-05T20:13:22.649Z,98970.53
2023-08-05T20:15:50.879Z,98968.81
2023-08-05T20:18:21.430Z,98958.38
2023-08-05T20:20:49.604Z,98961.97
2023-08-05T20:23:19.129Z,98927.88
2023-08-05T20:25:46.811Z,98948.97
2023-08-05T20:28:16.049Z,98946.41
2023-08-05T20:30:43.815Z,98943.78
2023-08-05T20:33:11.725Z,98944.63
2023-08-05T20:35:39.513Z,98929.09
2023-08-05T20:38:07.429Z,98900.53
2023-08-05T20:40:37.904Z,98936.00
2023-08-05T20:43:05.724Z,98924.97
2023-08-05T20:45:38.421Z,98926.34
2023-08-05T20:48:06.439Z,98924.66
2023-08-05T20:50:34.619Z,98929.00
2023-08-05T20:53:02.621Z,98925.41
2023-08-05T20:55:30.412Z,98921.22
2023-08-05T20:57:58.096Z,98921.22
2023-08-05T21:00:25.864Z,98893.16
2023-08-05T21:02:57.232Z,98915.94
2023-08-05T21:05:26.298Z,98914.88
2023-08-05T21:07:54.134Z,98914.72
2023-08-05T21:10:25.087Z,98877.88
2023-08-05T21:12:52.930Z,98908.41
2023-08-05T21:15:20.655Z,98909.09
2023-08-05T21:17:48.390Z,98905.34
2023-08-05T21:20:17.678Z,98893.03
2023-08-05T21:22:45.381Z,98902.16
2023-08-05T21:25:13.146Z,98882.22
2023-08-05T21:27:41.288Z,98899.50
2023-08-05T21:30:09.917Z,98890.59
2023-08-05T21:32:37.608Z,98900.28
2023-08-05T21:35:06.353Z,98892.66
2023-08-05T21:37:35.370Z,98858.16
2023-08-05T21:40:03.198Z,98889.06
2023-08-05T21:42:30.857Z,98884.63
2023-08-05T21:44:58.604Z,98882.03
2023-08-05T21:47:26.318Z,98870.59
2023-08-05T21:49:54.150Z,98865.97
2023-08-05T21:52:21.885Z,98858.97
2023-08-05T21:54:51.316Z,98860.66
2023-08-05T21:57:19.006Z,98864.25
2023-08-05T21:59:46.838Z,98820.38
2023-08-05T22:02:14.618Z,98849.38
2023-08-05T22:04:44.310Z,98849.28
2023-08-05T22:07:14.673Z,98814.91
2023-08-05T22:09:45.125Z,98786.63
2023-08-05T22:12:14.286Z,98835.16
2023-08-05T22:14:43.222Z,98826.25
2023-08-05T22:17:10.907Z,98804.56
2023-08-05T22:19:39.121Z,98809.47
2023-08-05T22:22:07.695Z,98814.97
2023-08-05T22:24:41.623Z,98812.84
2023-08-05T22:27:10.205Z,98808.31
2023-08-05T22:29:39.461Z,98756.53
2023-08-05T22:32:08.127Z,98812.06
2023-08-05T22:34:36.264Z,98812.16
2023-08-05T22:37:04.542Z,98807.78
2023-08-05T22:39:32.433Z,98784.72
2023-08-05T22:42:00.081Z,98804.47
2023-08-05T22:44:27.875Z,98804.56
2023-08-05T22:46:57.187Z,98805.41
2023-08-05T22:49:24.925Z,98793.16
2023-08-05T22:51:52.654Z,98791.84
2023-08-05T22:54:20.629Z,98782.69
2023-08-05T22:56:48.359Z,98766.00
2023-08-05T22:59:16.255Z,98780.03
2023-08-05T23:01:43.988Z,98773.84
2023-08-05T23:04:13.093Z,98769.69
2023-08-05T23:06:40.789Z,98766.75
2023-08-05T23:09:08.696Z,98765.41
2023-08-05T23:11:36.371Z,98762.50
2023-08-05T23:14:04.242Z,98760.28
2023-08-05T23:16:31.959Z,98763.63
2023-08-05T23:18:59.728Z,98763.78
2023-08-05T23:21:30.652Z,98764.16
2023-08-05T23:23:59.057Z,98758.25
2023-08-05T23:26:27.536Z,98753.22
2023-08-05T23:28:59.208Z,98755.88
2023-08-05T23:31:27.200Z,98753.41
2023-08-05T23:33:55.207Z,98754.66
2023-08-05T23:36:23.220Z,98754.66
2023-08-05T23:38:52.254Z,98750.38
2023-08-05T23:41:19.950Z,98746.97
2023-08-05T23:43:47.589Z,98743.38
2023-08-05T23:46:15.554Z,98747.84
2023-08-05T23:48:43.268Z,98738.94
2023-08-05T23:51:11.067Z,98728.00
2023-08-05T23:53:38.729Z,98742.53
2023-08-05T23:56:07.904Z,98733.81
2023-08-05T23:58:35.600Z,98744.69
